sensor_id;sensor_type;location;lat;lon;timestamp;temperature;humidity
8565;DHT22;4320;51.498;6.556;2022-12-19T00:01:05;1.50;1.00
8565;DHT22;4320;51.498;6.556;2022-12-19T00:03:34;1.50;1.00
8565;DHT22;4320;51.498;6.556;2022-12-19T00:06:03;1.50;1.00
8565;DHT22;4320;51.498;6.556;2022-12-19T00:08:29;1.50;1.00
8565;DHT22;4320;51.498;6.556;2022-12-19T00:11:00;1.50;1.00
8565;DHT22;4320;51.498;6.556;2022-12-19T00:13:28;1.50;1.00
8565;DHT22;4320;51.498;6.556;2022-12-19T00:15:53;1.50;1.00
8565;DHT22;4320;51.498;6.556;2022-12-19T00:18:19;1.60;1.00
8565;DHT22;4320;51.498;6.556;2022-12-19T00:20:59;1.60;1.00
8565;DHT22;4320;51.498;6.556;2022-12-19T00:23:27;1.60;1.00
8565;DHT22;4320;51.498;6.556;2022-12-19T00:25:53;1.70;1.00
8565;DHT22;4320;51.498;6.556;2022-12-19T00:28:19;1.70;1.00
8565;DHT22;4320;51.498;6.556;2022-12-19T00:30:45;1.70;1.00
8565;DHT22;4320;51.498;6.556;2022-12-19T00:33:11;1.70;1.00
8565;DHT22;4320;51.498;6.556;2022-12-19T00:35:37;1.80;1.00
8565;DHT22;4320;51.498;6.556;2022-12-19T00:38:02;1.70;1.00
8565;DHT22;4320;51.498;6.556;2022-12-19T00:40:28;1.70;1.00
8565;DHT22;4320;51.498;6.556;2022-12-19T00:42:54;1.70;1.00
8565;DHT22;4320;51.498;6.556;2022-12-19T00:45:20;1.80;1.00
8565;DHT22;4320;51.498;6.556;2022-12-19T00:47:46;1.90;1.00
8565;DHT22;4320;51.498;6.556;2022-12-19T00:50:11;1.80;1.00
8565;DHT22;4320;51.498;6.556;2022-12-19T00:52:37;1.80;1.00
8565;DHT22;4320;51.498;6.556;2022-12-19T00:55:03;1.80;1.00
8565;DHT22;4320;51.498;6.556;2022-12-19T00:57:28;1.80;1.00
8565;DHT22;4320;51.498;6.556;2022-12-19T00:59:54;1.80;1.00
8565;DHT22;4320;51.498;6.556;2022-12-19T01:02:20;1.80;1.00
8565;DHT22;4320;51.498;6.556;2022-12-19T01:04:45;1.80;1.00
8565;DHT22;4320;51.498;6.556;2022-12-19T01:07:11;1.80;1.00
8565;DHT22;4320;51.498;6.556;2022-12-19T01:09:37;1.80;1.00
8565;DHT22;4320;51.498;6.556;2022-12-19T01:12:05;1.90;1.00
8565;DHT22;4320;51.498;6.556;2022-12-19T01:14:52;1.80;1.00
8565;DHT22;4320;51.498;6.556;2022-12-19T01:17:18;1.90;1.00
8565;DHT22;4320;51.498;6.556;2022-12-19T01:19:43;1.90;1.00
8565;DHT22;4320;51.498;6.556;2022-12-19T01:22:10;1.90;1.00
8565;DHT22;4320;51.498;6.556;2022-12-19T01:24:36;1.90;1.00
8565;DHT22;4320;51.498;6.556;2022-12-19T01:27:02;1.90;1.00
8565;DHT22;4320;51.498;6.556;2022-12-19T01:29:27;2.00;1.00
8565;DHT22;4320;51.498;6.556;2022-12-19T01:31:53;1.90;1.00
8565;DHT22;4320;51.498;6.556;2022-12-19T01:34:18;2.00;1.00
8565;DHT22;4320;51.498;6.556;2022-12-19T01:36:44;1.90;1.00
8565;DHT22;4320;51.498;6.556;2022-12-19T01:39:10;1.80;1.00
8565;DHT22;4320;51.498;6.556;2022-12-19T01:41:36;1.90;1.00
8565;DHT22;4320;51.498;6.556;2022-12-19T01:44:04;2.00;1.00
8565;DHT22;4320;51.498;6.556;2022-12-19T01:46:46;2.00;1.00
8565;DHT22;4320;51.498;6.556;2022-12-19T01:49:25;2.00;1.00
8565;DHT22;4320;51.498;6.556;2022-12-19T01:51:55;2.10;1.00
8565;DHT22;4320;51.498;6.556;2022-12-19T01:54:26;2.10;1.00
8565;DHT22;4320;51.498;6.556;2022-12-19T01:56:55;2.10;1.00
8565;DHT22;4320;51.498;6.556;2022-12-19T01:59:28;2.10;1.00
8565;DHT22;4320;51.498;6.556;2022-12-19T02:01:59;2.20;1.00
8565;DHT22;4320;51.498;6.556;2022-12-19T02:04:27;2.30;1.00
8565;DHT22;4320;51.498;6.556;2022-12-19T02:06:54;2.30;1.00
8565;DHT22;4320;51.498;6.556;2022-12-19T02:09:20;2.30;1.00
8565;DHT22;4320;51.498;6.556;2022-12-19T02:11:49;2.40;1.00
8565;DHT22;4320;51.498;6.556;2022-12-19T02:14:14;2.50;1.00
8565;DHT22;4320;51.498;6.556;2022-12-19T02:19:58;2.50;1.00
8565;DHT22;4320;51.498;6.556;2022-12-19T02:25:24;2.60;1.00
8565;DHT22;4320;51.498;6.556;2022-12-19T02:31:23;2.70;1.00
8565;DHT22;4320;51.498;6.556;2022-12-19T02:34:02;2.70;1.00
8565;DHT22;4320;51.498;6.556;2022-12-19T02:39:24;2.70;1.00
8565;DHT22;4320;51.498;6.556;2022-12-19T02:41:56;2.80;1.00
8565;DHT22;4320;51.498;6.556;2022-12-19T02:44:31;2.80;1.00
8565;DHT22;4320;51.498;6.556;2022-12-19T02:46:59;2.90;1.00
8565;DHT22;4320;51.498;6.556;2022-12-19T02:49:28;2.90;1.00
8565;DHT22;4320;51.498;6.556;2022-12-19T02:51:54;2.90;1.00
8565;DHT22;4320;51.498;6.556;2022-12-19T02:54:20;2.90;1.00
8565;DHT22;4320;51.498;6.556;2022-12-19T02:56:58;2.90;1.00
8565;DHT22;4320;51.498;6.556;2022-12-19T02:59:44;3.00;1.00
8565;DHT22;4320;51.498;6.556;2022-12-19T03:15:51;3.00;1.00
8565;DHT22;4320;51.498;6.556;2022-12-19T03:18:18;2.90;1.00
8565;DHT22;4320;51.498;6.556;2022-12-19T03:20:54;2.90;1.00
8565;DHT22;4320;51.498;6.556;2022-12-19T03:23:24;3.00;1.00
8565;DHT22;4320;51.498;6.556;2022-12-19T03:25:52;3.00;1.00
8565;DHT22;4320;51.498;6.556;2022-12-19T03:28:33;3.00;1.00
8565;DHT22;4320;51.498;6.556;2022-12-19T03:31:01;3.00;1.00
8565;DHT22;4320;51.498;6.556;2022-12-19T03:33:30;3.00;1.00
8565;DHT22;4320;51.498;6.556;2022-12-19T03:36:00;3.10;1.00
8565;DHT22;4320;51.498;6.556;2022-12-19T03:38:28;3.10;1.00
8565;DHT22;4320;51.498;6.556;2022-12-19T03:40:55;3.10;1.00
8565;DHT22;4320;51.498;6.556;2022-12-19T03:43:22;3.20;1.00
8565;DHT22;4320;51.498;6.556;2022-12-19T03:46:13;3.10;1.00
8565;DHT22;4320;51.498;6.556;2022-12-19T03:48:46;3.10;1.00
8565;DHT22;4320;51.498;6.556;2022-12-19T03:59:24;3.20;1.00
8565;DHT22;4320;51.498;6.556;2022-12-19T04:01:56;3.20;1.00
8565;DHT22;4320;51.498;6.556;2022-12-19T04:04:23;3.20;1.00
8565;DHT22;4320;51.498;6.556;2022-12-19T04:06:51;3.20;1.00
8565;DHT22;4320;51.498;6.556;2022-12-19T04:09:19;3.20;1.00
8565;DHT22;4320;51.498;6.556;2022-12-19T04:11:56;3.20;1.00
8565;DHT22;4320;51.498;6.556;2022-12-19T04:14:33;3.10;1.00
8565;DHT22;4320;51.498;6.556;2022-12-19T04:17:27;3.10;1.00
8565;DHT22;4320;51.498;6.556;2022-12-19T04:25:18;3.10;1.00
8565;DHT22;4320;51.498;6.556;2022-12-19T04:27:50;3.20;1.00
8565;DHT22;4320;51.498;6.556;2022-12-19T04:30:18;3.20;1.00
8565;DHT22;4320;51.498;6.556;2022-12-19T04:32:44;3.10;1.00
8565;DHT22;4320;51.498;6.556;2022-12-19T04:35:11;3.10;1.00
8565;DHT22;4320;51.498;6.556;2022-12-19T04:37:36;3.10;1.00
8565;DHT22;4320;51.498;6.556;2022-12-19T04:40:03;3.10;1.00
8565;DHT22;4320;51.498;6.556;2022-12-19T04:42:29;3.10;1.00
8565;DHT22;4320;51.498;6.556;2022-12-19T04:44:55;3.10;1.00
8565;DHT22;4320;51.498;6.556;2022-12-19T04:47:21;3.10;1.00
8565;DHT22;4320;51.498;6.556;2022-12-19T04:49:46;3.20;1.00
8565;DHT22;4320;51.498;6.556;2022-12-19T04:52:12;3.10;1.00
8565;DHT22;4320;51.498;6.556;2022-12-19T04:54:38;3.20;1.00
8565;DHT22;4320;51.498;6.556;2022-12-19T04:57:03;3.20;1.00
8565;DHT22;4320;51.498;6.556;2022-12-19T04:59:29;3.20;1.00
8565;DHT22;4320;51.498;6.556;2022-12-19T05:01:56;3.10;1.00
8565;DHT22;4320;51.498;6.556;2022-12-19T05:04:21;3.20;1.00
8565;DHT22;4320;51.498;6.556;2022-12-19T05:06:47;3.20;1.00
8565;DHT22;4320;51.498;6.556;2022-12-19T05:09:12;3.10;1.00
8565;DHT22;4320;51.498;6.556;2022-12-19T05:11:38;3.10;1.00
8565;DHT22;4320;51.498;6.556;2022-12-19T05:14:04;3.20;1.00
8565;DHT22;4320;51.498;6.556;2022-12-19T05:16:30;3.20;1.00
8565;DHT22;4320;51.498;6.556;2022-12-19T05:18:55;3.20;1.00
8565;DHT22;4320;51.498;6.556;2022-12-19T05:21:21;3.30;1.00
8565;DHT22;4320;51.498;6.556;2022-12-19T05:23:48;3.30;1.00
8565;DHT22;4320;51.498;6.556;2022-12-19T05:26:14;3.30;1.00
8565;DHT22;4320;51.498;6.556;2022-12-19T05:28:40;3.30;1.00
8565;DHT22;4320;51.498;6.556;2022-12-19T05:31:09;3.30;1.00
8565;DHT22;4320;51.498;6.556;2022-12-19T05:33:35;3.30;1.00
8565;DHT22;4320;51.498;6.556;2022-12-19T05:36:01;3.30;1.00
8565;DHT22;4320;51.498;6.556;2022-12-19T05:38:27;3.40;1.00
8565;DHT22;4320;51.498;6.556;2022-12-19T05:40:53;3.40;1.00
8565;DHT22;4320;51.498;6.556;2022-12-19T05:43:19;3.40;1.00
8565;DHT22;4320;51.498;6.556;2022-12-19T05:45:45;3.40;1.00
8565;DHT22;4320;51.498;6.556;2022-12-19T05:48:10;3.50;1.00
8565;DHT22;4320;51.498;6.556;2022-12-19T05:50:36;3.50;1.00
8565;DHT22;4320;51.498;6.556;2022-12-19T05:53:02;3.50;1.00
8565;DHT22;4320;51.498;6.556;2022-12-19T05:55:30;3.50;1.00
8565;DHT22;4320;51.498;6.556;2022-12-19T05:57:56;3.50;1.00
8565;DHT22;4320;51.498;6.556;2022-12-19T06:00:21;3.50;1.00
8565;DHT22;4320;51.498;6.556;2022-12-19T06:02:47;3.60;1.00
8565;DHT22;4320;51.498;6.556;2022-12-19T06:05:13;3.60;1.00
8565;DHT22;4320;51.498;6.556;2022-12-19T06:07:39;3.70;1.00
8565;DHT22;4320;51.498;6.556;2022-12-19T06:10:05;3.70;1.00
8565;DHT22;4320;51.498;6.556;2022-12-19T06:12:31;3.70;1.00
8565;DHT22;4320;51.498;6.556;2022-12-19T06:14:57;3.70;1.00
8565;DHT22;4320;51.498;6.556;2022-12-19T06:17:22;3.70;1.00
8565;DHT22;4320;51.498;6.556;2022-12-19T06:19:48;3.70;1.00
8565;DHT22;4320;51.498;6.556;2022-12-19T06:22:14;3.80;1.00
8565;DHT22;4320;51.498;6.556;2022-12-19T06:24:40;3.80;1.00
8565;DHT22;4320;51.498;6.556;2022-12-19T06:27:05;3.80;1.00
8565;DHT22;4320;51.498;6.556;2022-12-19T06:29:31;3.90;1.00
8565;DHT22;4320;51.498;6.556;2022-12-19T06:31:56;3.90;1.00
8565;DHT22;4320;51.498;6.556;2022-12-19T06:34:22;3.90;1.00
8565;DHT22;4320;51.498;6.556;2022-12-19T06:36:48;4.00;1.00
8565;DHT22;4320;51.498;6.556;2022-12-19T06:39:14;4.00;1.00
8565;DHT22;4320;51.498;6.556;2022-12-19T06:41:40;4.00;1.00
8565;DHT22;4320;51.498;6.556;2022-12-19T06:44:25;4.10;1.00
8565;DHT22;4320;51.498;6.556;2022-12-19T06:46:51;4.10;1.00
8565;DHT22;4320;51.498;6.556;2022-12-19T06:49:17;4.10;1.00
8565;DHT22;4320;51.498;6.556;2022-12-19T06:51:43;4.20;1.00
8565;DHT22;4320;51.498;6.556;2022-12-19T06:54:10;4.20;1.00
8565;DHT22;4320;51.498;6.556;2022-12-19T06:56:37;4.20;1.00
8565;DHT22;4320;51.498;6.556;2022-12-19T06:59:04;4.30;1.00
8565;DHT22;4320;51.498;6.556;2022-12-19T07:03:58;4.30;1.00
8565;DHT22;4320;51.498;6.556;2022-12-19T07:06:24;4.30;1.00
8565;DHT22;4320;51.498;6.556;2022-12-19T07:08:49;4.30;1.00
8565;DHT22;4320;51.498;6.556;2022-12-19T07:11:15;4.40;1.00
8565;DHT22;4320;51.498;6.556;2022-12-19T07:13:41;4.40;1.00
8565;DHT22;4320;51.498;6.556;2022-12-19T07:16:06;4.40;1.00
8565;DHT22;4320;51.498;6.556;2022-12-19T07:18:35;4.40;1.00
8565;DHT22;4320;51.498;6.556;2022-12-19T07:21:01;4.40;1.00
8565;DHT22;4320;51.498;6.556;2022-12-19T07:23:28;4.50;1.00
8565;DHT22;4320;51.498;6.556;2022-12-19T07:25:54;4.50;1.00
8565;DHT22;4320;51.498;6.556;2022-12-19T07:28:19;4.50;1.00
8565;DHT22;4320;51.498;6.556;2022-12-19T07:30:45;4.50;1.00
8565;DHT22;4320;51.498;6.556;2022-12-19T07:33:10;4.50;1.00
8565;DHT22;4320;51.498;6.556;2022-12-19T07:35:36;4.60;1.00
8565;DHT22;4320;51.498;6.556;2022-12-19T07:38:03;4.60;1.00
8565;DHT22;4320;51.498;6.556;2022-12-19T07:40:29;4.60;1.00
8565;DHT22;4320;51.498;6.556;2022-12-19T07:43:02;4.60;1.00
8565;DHT22;4320;51.498;6.556;2022-12-19T07:45:29;4.60;1.00
8565;DHT22;4320;51.498;6.556;2022-12-19T07:47:55;4.70;1.00
8565;DHT22;4320;51.498;6.556;2022-12-19T07:50:21;4.70;1.00
8565;DHT22;4320;51.498;6.556;2022-12-19T07:52:46;4.70;1.00
8565;DHT22;4320;51.498;6.556;2022-12-19T07:55:12;4.70;1.00
8565;DHT22;4320;51.498;6.556;2022-12-19T07:57:38;4.70;1.00
8565;DHT22;4320;51.498;6.556;2022-12-19T08:00:04;4.70;1.00
8565;DHT22;4320;51.498;6.556;2022-12-19T08:02:30;4.70;1.00
8565;DHT22;4320;51.498;6.556;2022-12-19T08:04:56;4.80;1.00
8565;DHT22;4320;51.498;6.556;2022-12-19T08:07:22;4.70;1.00
8565;DHT22;4320;51.498;6.556;2022-12-19T08:09:47;4.80;1.00
8565;DHT22;4320;51.498;6.556;2022-12-19T08:12:13;4.80;1.00
8565;DHT22;4320;51.498;6.556;2022-12-19T08:14:38;4.80;1.00
8565;DHT22;4320;51.498;6.556;2022-12-19T08:17:04;4.80;1.00
8565;DHT22;4320;51.498;6.556;2022-12-19T08:19:30;4.80;1.00
8565;DHT22;4320;51.498;6.556;2022-12-19T08:21:55;4.90;1.00
8565;DHT22;4320;51.498;6.556;2022-12-19T08:24:21;4.90;1.00
8565;DHT22;4320;51.498;6.556;2022-12-19T08:26:46;4.90;1.00
8565;DHT22;4320;51.498;6.556;2022-12-19T08:29:12;4.90;1.00
8565;DHT22;4320;51.498;6.556;2022-12-19T08:31:38;4.90;1.00
8565;DHT22;4320;51.498;6.556;2022-12-19T08:34:03;4.90;1.00
8565;DHT22;4320;51.498;6.556;2022-12-19T08:36:29;4.90;1.00
8565;DHT22;4320;51.498;6.556;2022-12-19T08:38:55;4.90;1.00
8565;DHT22;4320;51.498;6.556;2022-12-19T08:41:21;5.00;1.00
8565;DHT22;4320;51.498;6.556;2022-12-19T08:43:49;5.00;1.00
8565;DHT22;4320;51.498;6.556;2022-12-19T08:46:16;5.00;1.00
8565;DHT22;4320;51.498;6.556;2022-12-19T08:48:42;5.00;1.00
8565;DHT22;4320;51.498;6.556;2022-12-19T08:51:10;5.10;1.00
8565;DHT22;4320;51.498;6.556;2022-12-19T08:53:38;5.10;1.00
8565;DHT22;4320;51.498;6.556;2022-12-19T08:56:10;5.20;1.00
8565;DHT22;4320;51.498;6.556;2022-12-19T08:58:36;5.10;1.00
8565;DHT22;4320;51.498;6.556;2022-12-19T09:01:04;5.20;1.00
8565;DHT22;4320;51.498;6.556;2022-12-19T09:03:31;5.20;1.00
8565;DHT22;4320;51.498;6.556;2022-12-19T09:05:58;5.30;1.00
8565;DHT22;4320;51.498;6.556;2022-12-19T09:08:25;5.30;1.00
8565;DHT22;4320;51.498;6.556;2022-12-19T09:11:05;5.30;1.00
8565;DHT22;4320;51.498;6.556;2022-12-19T09:13:32;5.30;1.00
8565;DHT22;4320;51.498;6.556;2022-12-19T09:16:01;5.40;1.00
8565;DHT22;4320;51.498;6.556;2022-12-19T09:18:28;5.40;1.00
8565;DHT22;4320;51.498;6.556;2022-12-19T09:20:55;5.40;1.00
8565;DHT22;4320;51.498;6.556;2022-12-19T09:23:21;5.40;1.00
8565;DHT22;4320;51.498;6.556;2022-12-19T09:25:47;5.40;1.00
8565;DHT22;4320;51.498;6.556;2022-12-19T09:28:13;5.40;1.00
8565;DHT22;4320;51.498;6.556;2022-12-19T09:30:39;5.40;1.00
8565;DHT22;4320;51.498;6.556;2022-12-19T09:33:04;5.50;1.00
8565;DHT22;4320;51.498;6.556;2022-12-19T09:35:30;5.50;1.00
8565;DHT22;4320;51.498;6.556;2022-12-19T09:37:56;5.60;1.00
8565;DHT22;4320;51.498;6.556;2022-12-19T09:40:22;5.60;1.00
8565;DHT22;4320;51.498;6.556;2022-12-19T09:45:36;5.70;1.00
8565;DHT22;4320;51.498;6.556;2022-12-19T09:48:13;5.70;1.00
8565;DHT22;4320;51.498;6.556;2022-12-19T09:53:23;5.70;1.00
8565;DHT22;4320;51.498;6.556;2022-12-19T09:55:53;5.80;1.00
8565;DHT22;4320;51.498;6.556;2022-12-19T09:58:40;5.80;1.00
8565;DHT22;4320;51.498;6.556;2022-12-19T10:01:21;5.80;1.00
8565;DHT22;4320;51.498;6.556;2022-12-19T10:03:58;5.80;1.00
8565;DHT22;4320;51.498;6.556;2022-12-19T10:06:25;5.80;1.00
8565;DHT22;4320;51.498;6.556;2022-12-19T10:08:51;5.80;1.00
8565;DHT22;4320;51.498;6.556;2022-12-19T10:16:52;6.00;1.00
8565;DHT22;4320;51.498;6.556;2022-12-19T10:20:16;5.90;1.00
8565;DHT22;4320;51.498;6.556;2022-12-19T10:22:50;6.00;1.00
8565;DHT22;4320;51.498;6.556;2022-12-19T10:36:10;6.20;1.00
8565;DHT22;4320;51.498;6.556;2022-12-19T10:38:53;6.20;1.00
8565;DHT22;4320;51.498;6.556;2022-12-19T10:41:21;6.30;1.00
8565;DHT22;4320;51.498;6.556;2022-12-19T10:44:08;6.30;1.00
8565;DHT22;4320;51.498;6.556;2022-12-19T10:46:40;6.40;1.00
8565;DHT22;4320;51.498;6.556;2022-12-19T10:49:26;6.40;1.00
8565;DHT22;4320;51.498;6.556;2022-12-19T10:54:40;6.40;1.00
8565;DHT22;4320;51.498;6.556;2022-12-19T10:57:27;6.50;1.00
8565;DHT22;4320;51.498;6.556;2022-12-19T11:02:39;6.50;1.00
8565;DHT22;4320;51.498;6.556;2022-12-19T11:13:27;6.60;1.00
8565;DHT22;4320;51.498;6.556;2022-12-19T11:15:58;6.70;1.00
8565;DHT22;4320;51.498;6.556;2022-12-19T11:18:47;6.70;1.00
8565;DHT22;4320;51.498;6.556;2022-12-19T11:21:30;6.80;1.00
8565;DHT22;4320;51.498;6.556;2022-12-19T11:24:00;6.80;1.00
8565;DHT22;4320;51.498;6.556;2022-12-19T11:26:43;6.80;1.00
8565;DHT22;4320;51.498;6.556;2022-12-19T11:31:46;6.70;1.00
8565;DHT22;4320;51.498;6.556;2022-12-19T11:34:16;6.70;1.00
8565;DHT22;4320;51.498;6.556;2022-12-19T11:36:51;6.70;1.00
8565;DHT22;4320;51.498;6.556;2022-12-19T11:39:36;6.70;1.00
8565;DHT22;4320;51.498;6.556;2022-12-19T11:42:20;6.70;1.00
8565;DHT22;4320;51.498;6.556;2022-12-19T11:44:55;6.80;1.00
8565;DHT22;4320;51.498;6.556;2022-12-19T11:50:10;6.70;1.00
8565;DHT22;4320;51.498;6.556;2022-12-19T11:53:10;6.80;1.00
8565;DHT22;4320;51.498;6.556;2022-12-19T11:58:13;6.90;1.00
8565;DHT22;4320;51.498;6.556;2022-12-19T12:00:53;6.90;1.00
8565;DHT22;4320;51.498;6.556;2022-12-19T12:05:59;6.90;1.00
8565;DHT22;4320;51.498;6.556;2022-12-19T12:14:16;6.90;1.00
8565;DHT22;4320;51.498;6.556;2022-12-19T12:28:33;7.00;1.00
8565;DHT22;4320;51.498;6.556;2022-12-19T12:30:54;7.00;1.00
8565;DHT22;4320;51.498;6.556;2022-12-19T12:39:17;7.10;1.00
8565;DHT22;4320;51.498;6.556;2022-12-19T12:44:35;7.20;1.00
8565;DHT22;4320;51.498;6.556;2022-12-19T12:47:22;7.20;1.00
8565;DHT22;4320;51.498;6.556;2022-12-19T12:49:57;7.20;1.00
8565;DHT22;4320;51.498;6.556;2022-12-19T12:52:56;7.30;1.00
8565;DHT22;4320;51.498;6.556;2022-12-19T12:55:34;7.30;1.00
8565;DHT22;4320;51.498;6.556;2022-12-19T13:01:18;7.40;1.00
8565;DHT22;4320;51.498;6.556;2022-12-19T13:06:27;7.50;1.00
8565;DHT22;4320;51.498;6.556;2022-12-19T13:12:23;7.60;1.00
8565;DHT22;4320;51.498;6.556;2022-12-19T13:30:26;7.70;1.00
8565;DHT22;4320;51.498;6.556;2022-12-19T13:37:44;7.80;1.00
8565;DHT22;4320;51.498;6.556;2022-12-19T13:40:26;7.90;1.00
8565;DHT22;4320;51.498;6.556;2022-12-19T13:48:40;7.80;1.00
8565;DHT22;4320;51.498;6.556;2022-12-19T13:51:09;7.70;1.00
8565;DHT22;4320;51.498;6.556;2022-12-19T13:53:36;7.70;1.00
8565;DHT22;4320;51.498;6.556;2022-12-19T13:56:14;7.60;1.00
8565;DHT22;4320;51.498;6.556;2022-12-19T13:58:47;7.60;1.00
8565;DHT22;4320;51.498;6.556;2022-12-19T14:01:34;7.50;1.00
8565;DHT22;4320;51.498;6.556;2022-12-19T14:04:12;7.60;1.00
8565;DHT22;4320;51.498;6.556;2022-12-19T14:06:42;7.50;1.00
8565;DHT22;4320;51.498;6.556;2022-12-19T14:09:30;7.40;1.00
8565;DHT22;4320;51.498;6.556;2022-12-19T14:11:59;7.50;1.00
8565;DHT22;4320;51.498;6.556;2022-12-19T14:14:26;7.40;1.00
8565;DHT22;4320;51.498;6.556;2022-12-19T14:17:16;7.30;1.00
8565;DHT22;4320;51.498;6.556;2022-12-19T14:19:45;7.40;1.00
8565;DHT22;4320;51.498;6.556;2022-12-19T14:22:20;7.30;1.00
8565;DHT22;4320;51.498;6.556;2022-12-19T14:24:58;7.30;1.00
8565;DHT22;4320;51.498;6.556;2022-12-19T14:27:49;7.30;1.00
8565;DHT22;4320;51.498;6.556;2022-12-19T14:30:35;7.30;1.00
8565;DHT22;4320;51.498;6.556;2022-12-19T14:33:15;7.20;1.00
8565;DHT22;4320;51.498;6.556;2022-12-19T14:35:50;7.30;1.00
8565;DHT22;4320;51.498;6.556;2022-12-19T14:38:30;7.30;1.00
8565;DHT22;4320;51.498;6.556;2022-12-19T14:40:58;7.30;1.00
8565;DHT22;4320;51.498;6.556;2022-12-19T14:43:29;7.30;1.00
8565;DHT22;4320;51.498;6.556;2022-12-19T14:48:50;7.20;1.00
8565;DHT22;4320;51.498;6.556;2022-12-19T14:51:27;7.20;1.00
8565;DHT22;4320;51.498;6.556;2022-12-19T14:56:32;7.30;1.00
8565;DHT22;4320;51.498;6.556;2022-12-19T14:59:19;7.20;1.00
8565;DHT22;4320;51.498;6.556;2022-12-19T15:04:42;7.20;1.00
8565;DHT22;4320;51.498;6.556;2022-12-19T15:10:17;7.30;1.00
8565;DHT22;4320;51.498;6.556;2022-12-19T15:15:42;7.30;1.00
8565;DHT22;4320;51.498;6.556;2022-12-19T15:21:02;7.40;1.00
8565;DHT22;4320;51.498;6.556;2022-12-19T15:23:29;7.40;1.00
8565;DHT22;4320;51.498;6.556;2022-12-19T15:25:59;7.40;1.00
8565;DHT22;4320;51.498;6.556;2022-12-19T15:28:38;7.40;1.00
8565;DHT22;4320;51.498;6.556;2022-12-19T15:31:29;7.40;1.00
8565;DHT22;4320;51.498;6.556;2022-12-19T15:33:56;7.40;1.00
8565;DHT22;4320;51.498;6.556;2022-12-19T15:36:22;7.40;1.00
8565;DHT22;4320;51.498;6.556;2022-12-19T15:38:48;7.40;1.00
8565;DHT22;4320;51.498;6.556;2022-12-19T15:41:17;7.40;1.00
8565;DHT22;4320;51.498;6.556;2022-12-19T15:43:44;7.40;1.00
8565;DHT22;4320;51.498;6.556;2022-12-19T15:46:10;7.40;1.00
8565;DHT22;4320;51.498;6.556;2022-12-19T15:48:39;7.50;99.90
8565;DHT22;4320;51.498;6.556;2022-12-19T15:51:11;7.50;99.90
8565;DHT22;4320;51.498;6.556;2022-12-19T15:53:36;7.50;99.90
8565;DHT22;4320;51.498;6.556;2022-12-19T15:56:02;7.50;99.90
8565;DHT22;4320;51.498;6.556;2022-12-19T15:58:28;7.50;99.90
8565;DHT22;4320;51.498;6.556;2022-12-19T16:00:57;7.50;99.90
8565;DHT22;4320;51.498;6.556;2022-12-19T16:03:24;7.60;99.90
8565;DHT22;4320;51.498;6.556;2022-12-19T16:05:51;7.60;99.90
8565;DHT22;4320;51.498;6.556;2022-12-19T16:08:21;7.60;99.90
8565;DHT22;4320;51.498;6.556;2022-12-19T16:10:51;7.60;99.90
8565;DHT22;4320;51.498;6.556;2022-12-19T16:13:24;7.60;99.90
8565;DHT22;4320;51.498;6.556;2022-12-19T16:15:51;7.60;99.90
8565;DHT22;4320;51.498;6.556;2022-12-19T16:18:18;7.70;99.90
8565;DHT22;4320;51.498;6.556;2022-12-19T16:20:45;7.60;99.90
8565;DHT22;4320;51.498;6.556;2022-12-19T16:23:11;7.70;99.90
8565;DHT22;4320;51.498;6.556;2022-12-19T16:25:38;7.70;99.90
8565;DHT22;4320;51.498;6.556;2022-12-19T16:28:06;7.70;99.90
8565;DHT22;4320;51.498;6.556;2022-12-19T16:30:33;7.70;99.90
8565;DHT22;4320;51.498;6.556;2022-12-19T16:32:59;7.60;99.90
8565;DHT22;4320;51.498;6.556;2022-12-19T16:35:27;7.60;99.90
8565;DHT22;4320;51.498;6.556;2022-12-19T16:37:53;7.70;99.90
8565;DHT22;4320;51.498;6.556;2022-12-19T16:40:23;7.60;99.90
8565;DHT22;4320;51.498;6.556;2022-12-19T16:43:18;7.70;99.90
8565;DHT22;4320;51.498;6.556;2022-12-19T16:45:43;7.80;99.90
8565;DHT22;4320;51.498;6.556;2022-12-19T16:48:21;7.80;99.90
8565;DHT22;4320;51.498;6.556;2022-12-19T16:50:47;7.80;99.90
8565;DHT22;4320;51.498;6.556;2022-12-19T16:53:14;7.80;99.90
8565;DHT22;4320;51.498;6.556;2022-12-19T16:55:40;7.80;99.90
8565;DHT22;4320;51.498;6.556;2022-12-19T16:58:18;7.80;99.90
8565;DHT22;4320;51.498;6.556;2022-12-19T17:00:44;7.80;99.90
8565;DHT22;4320;51.498;6.556;2022-12-19T17:03:32;7.80;99.90
8565;DHT22;4320;51.498;6.556;2022-12-19T17:06:00;7.80;99.90
8565;DHT22;4320;51.498;6.556;2022-12-19T17:08:26;7.80;99.90
8565;DHT22;4320;51.498;6.556;2022-12-19T17:10:52;7.80;99.90
8565;DHT22;4320;51.498;6.556;2022-12-19T17:13:20;7.80;99.90
8565;DHT22;4320;51.498;6.556;2022-12-19T17:15:46;7.90;99.90
8565;DHT22;4320;51.498;6.556;2022-12-19T17:18:33;7.80;99.90
8565;DHT22;4320;51.498;6.556;2022-12-19T17:20:59;7.90;99.90
8565;DHT22;4320;51.498;6.556;2022-12-19T17:23:26;7.90;99.90
8565;DHT22;4320;51.498;6.556;2022-12-19T17:25:53;7.80;99.90
8565;DHT22;4320;51.498;6.556;2022-12-19T17:28:19;7.90;99.90
8565;DHT22;4320;51.498;6.556;2022-12-19T17:30:49;7.90;99.90
8565;DHT22;4320;51.498;6.556;2022-12-19T17:33:16;7.90;99.90
8565;DHT22;4320;51.498;6.556;2022-12-19T17:35:43;7.90;99.90
8565;DHT22;4320;51.498;6.556;2022-12-19T17:38:12;7.90;99.90
8565;DHT22;4320;51.498;6.556;2022-12-19T17:40:39;7.90;99.90
8565;DHT22;4320;51.498;6.556;2022-12-19T17:43:05;8.00;99.90
8565;DHT22;4320;51.498;6.556;2022-12-19T17:45:32;8.00;99.90
8565;DHT22;4320;51.498;6.556;2022-12-19T17:48:00;8.10;99.90
8565;DHT22;4320;51.498;6.556;2022-12-19T17:50:29;8.10;99.90
8565;DHT22;4320;51.498;6.556;2022-12-19T17:52:56;8.10;99.90
8565;DHT22;4320;51.498;6.556;2022-12-19T17:55:27;8.10;99.90
8565;DHT22;4320;51.498;6.556;2022-12-19T17:57:53;8.10;99.90
8565;DHT22;4320;51.498;6.556;2022-12-19T18:00:22;8.20;99.90
8565;DHT22;4320;51.498;6.556;2022-12-19T18:02:49;8.20;99.90
8565;DHT22;4320;51.498;6.556;2022-12-19T18:05:19;8.20;99.90
8565;DHT22;4320;51.498;6.556;2022-12-19T18:07:47;8.20;99.90
8565;DHT22;4320;51.498;6.556;2022-12-19T18:10:21;8.20;99.90
8565;DHT22;4320;51.498;6.556;2022-12-19T18:12:47;8.20;99.90
8565;DHT22;4320;51.498;6.556;2022-12-19T18:15:14;8.10;99.90
8565;DHT22;4320;51.498;6.556;2022-12-19T18:17:40;8.10;99.90
8565;DHT22;4320;51.498;6.556;2022-12-19T18:20:27;8.10;99.90
8565;DHT22;4320;51.498;6.556;2022-12-19T18:22:54;8.20;99.90
8565;DHT22;4320;51.498;6.556;2022-12-19T18:25:26;8.20;99.90
8565;DHT22;4320;51.498;6.556;2022-12-19T18:27:53;8.10;99.90
8565;DHT22;4320;51.498;6.556;2022-12-19T18:30:20;8.20;99.90
8565;DHT22;4320;51.498;6.556;2022-12-19T18:32:55;8.20;99.90
8565;DHT22;4320;51.498;6.556;2022-12-19T18:38:04;8.20;99.90
8565;DHT22;4320;51.498;6.556;2022-12-19T18:40:30;8.20;99.90
8565;DHT22;4320;51.498;6.556;2022-12-19T18:42:56;8.20;99.90
8565;DHT22;4320;51.498;6.556;2022-12-19T18:45:25;8.30;99.90
8565;DHT22;4320;51.498;6.556;2022-12-19T18:47:55;8.30;99.90
8565;DHT22;4320;51.498;6.556;2022-12-19T18:50:24;8.30;99.90
8565;DHT22;4320;51.498;6.556;2022-12-19T18:52:51;8.30;99.90
8565;DHT22;4320;51.498;6.556;2022-12-19T18:55:19;8.30;99.90
8565;DHT22;4320;51.498;6.556;2022-12-19T18:57:46;8.30;99.90
8565;DHT22;4320;51.498;6.556;2022-12-19T19:00:17;8.30;99.90
8565;DHT22;4320;51.498;6.556;2022-12-19T19:02:51;8.30;99.90
8565;DHT22;4320;51.498;6.556;2022-12-19T19:05:23;8.30;99.90
8565;DHT22;4320;51.498;6.556;2022-12-19T19:07:49;8.30;99.90
8565;DHT22;4320;51.498;6.556;2022-12-19T19:10:24;8.30;99.90
8565;DHT22;4320;51.498;6.556;2022-12-19T19:12:50;8.30;99.90
8565;DHT22;4320;51.498;6.556;2022-12-19T19:15:20;8.30;99.90
8565;DHT22;4320;51.498;6.556;2022-12-19T19:17:49;8.40;99.90
8565;DHT22;4320;51.498;6.556;2022-12-19T19:20:17;8.40;99.90
8565;DHT22;4320;51.498;6.556;2022-12-19T19:22:43;8.40;99.90
8565;DHT22;4320;51.498;6.556;2022-12-19T19:25:10;8.50;99.90
8565;DHT22;4320;51.498;6.556;2022-12-19T19:27:36;8.50;99.90
8565;DHT22;4320;51.498;6.556;2022-12-19T19:30:03;8.50;99.90
8565;DHT22;4320;51.498;6.556;2022-12-19T19:32:29;8.50;99.90
8565;DHT22;4320;51.498;6.556;2022-12-19T19:34:56;8.50;99.90
8565;DHT22;4320;51.498;6.556;2022-12-19T19:37:21;8.50;99.90